Johnston City, Illinois
Current Conditions -  °F | °C
As of 3:55 AM on Thursday 29 Jan 2015 (Local Time) from KMWA Reporting Station
Clear Clear  
Wind Chill: 50°   Ceiling: Unl
Heat Index: 50°   Visibility: 10mi
Dew Point: 37°   Wind: 15mph
Humidity: 62%   Direction: 200°SSW
Pressure: 29.85"   Gusts: 28mph
Location:  37.82°N, 88.93°W
Report Text: KMWA 290955Z AUTO 20013G24KT 10SM CLR 10/03 A2985 RMK AO2
Loading
Personal Weather Stations






























Interactive Weather Map New forecast layout! Learn more

10-Day Weather Forecast

Advertisements
Track Severe Weather on mobile